createdAt,value
2019-05-14T00:21:34.363Z,12.63
2019-05-14T00:51:41.157Z,12.63
2019-05-14T01:21:43.382Z,12.77
2019-05-14T01:51:45.993Z,9.73
2019-05-14T02:21:48.602Z,15.17
2019-05-14T02:51:51.237Z,11.13
2019-05-14T03:21:53.825Z,11.03
2019-05-14T03:52:00.061Z,9.13
2019-05-14T04:22:01.057Z,8.97
2019-05-14T04:52:03.661Z,12.07
2019-05-14T05:22:07.997Z,10.33
2019-05-14T05:52:10.516Z,10.38
2019-05-14T06:22:13.200Z,9.25
2019-05-14T06:52:15.822Z,10.10
2019-05-14T07:22:19.615Z,8.03
2019-05-14T07:52:22.265Z,9.15
2019-05-14T08:22:24.917Z,8.03
2019-05-14T08:52:28.832Z,7.75
2019-05-14T09:22:31.523Z,5.45
2019-05-14T09:52:34.126Z,6.12
2019-05-14T10:22:36.737Z,3.17
2019-05-14T10:52:39.632Z,3.75
2019-05-14T11:22:42.511Z,7.33
2019-05-14T11:52:45.105Z,5.78
2019-05-14T12:22:48.802Z,5.47
2019-05-14T12:52:52.115Z,4.28
2019-05-14T13:22:54.689Z,6.42
2019-05-14T13:53:02.678Z,4.55
2019-05-14T14:23:17.604Z,5.17
2019-05-14T14:53:09.206Z,8.23
2019-05-14T15:23:11.241Z,5.55
2019-05-14T15:53:13.923Z,9.23
2019-05-14T16:23:18.633Z,5.50
2019-05-14T16:53:20.934Z,6.08
2019-05-14T17:23:23.593Z,7.05
2019-05-14T17:53:26.245Z,8.80
2019-05-14T18:23:29.081Z,6.60
2019-05-14T18:53:31.845Z,7.78
2019-05-14T19:23:34.492Z,8.58
2019-05-14T19:53:39.197Z,6.30
2019-05-14T20:23:42.373Z,10.53
2019-05-14T20:53:45.343Z,7.78
2019-05-14T21:23:48.970Z,8.85
2019-05-14T21:53:51.822Z,10.05
2019-05-14T22:23:54.427Z,7.50
2019-05-14T22:53:58.852Z,6.30
2019-05-14T23:24:01.305Z,8.78
2019-05-14T23:54:03.942Z,11.60
